Time;durP1;ratioP1;P1;durP2;ratioP2;P2;SDS_P1;SDS_P2;PMS_P1;PMS_P2;Temp;Humidity;BMP_temperature;BMP_pressure;BME280_temperature;BME280_humidity;BME280_pressure;Samples;Min_cycle;Max_cycle;Signal;HPM_P1;HPM_P2
2021/08/27 00:02:08;;;;;;;3.72;0.93;;;;;;;21.30;55.26;101722.84;5031994;28;20308;-61
2021/08/27 00:04:33;;;;;;;3.15;0.80;;;;;;;21.30;55.52;101728.13;5032776;28;20022;-62
2021/08/27 00:06:59;;;;;;;2.60;0.90;;;;;;;21.29;55.30;101732.59;5032456;28;20131;-62
2021/08/27 00:09:24;;;;;;;2.10;0.80;;;;;;;21.27;55.17;101729.25;5032247;28;20040;-60
2021/08/27 00:11:49;;;;;;;2.33;0.65;;;;;;;21.27;55.32;101725.72;5032482;28;20022;-61
2021/08/27 00:14:15;;;;;;;2.88;0.85;;;;;;;21.27;55.20;101721.28;5032971;28;20049;-60
2021/08/27 00:16:41;;;;;;;2.10;0.80;;;;;;;21.26;55.14;101722.25;5031825;28;20123;-61
2021/08/27 00:19:06;;;;;;;2.92;0.90;;;;;;;21.27;55.31;101725.72;5032131;28;20033;-62
2021/08/27 00:21:31;;;;;;;1.92;0.80;;;;;;;21.24;55.02;101726.84;5032589;28;20037;-62
2021/08/27 00:23:56;;;;;;;1.43;0.70;;;;;;;21.25;55.10;101727.66;5030366;28;20067;-62
2021/08/27 00:26:22;;;;;;;3.20;0.77;;;;;;;21.25;55.06;101725.03;5032594;28;20282;-63
2021/08/27 00:28:47;;;;;;;1.90;0.70;;;;;;;21.24;55.27;101721.53;5032088;28;20759;-62
2021/08/27 00:31:12;;;;;;;3.03;0.80;;;;;;;21.23;54.67;101714.53;5031872;28;20025;-63
2021/08/27 00:33:37;;;;;;;2.00;0.80;;;;;;;21.24;54.87;101718.03;5032162;28;20638;-61
2021/08/27 00:36:03;;;;;;;2.23;0.70;;;;;;;21.22;54.97;101709.38;5032089;28;20030;-62
2021/08/27 00:38:28;;;;;;;2.35;0.85;;;;;;;21.22;54.82;101709.38;5031543;28;20275;-62
2021/08/27 00:40:54;;;;;;;2.75;0.90;;;;;;;21.22;54.80;101714.66;5031987;28;20021;-61
2021/08/27 00:43:19;;;;;;;2.15;0.70;;;;;;;21.21;54.87;101719.13;5032112;28;20117;-61
2021/08/27 00:45:44;;;;;;;1.57;0.70;;;;;;;21.22;54.82;101714.66;5031121;28;20022;-62
2021/08/27 00:48:13;;;;;;;2.08;0.70;;;;;;;21.20;54.95;101713.00;5031963;28;20274;-62
2021/08/27 00:50:38;;;;;;;3.13;0.73;;;;;;;21.20;54.75;101717.44;5031978;28;20140;-61
2021/08/27 00:53:05;;;;;;;2.22;0.70;;;;;;;21.20;54.78;101717.44;5031153;28;20052;-62
2021/08/27 00:55:30;;;;;;;1.70;0.70;;;;;;;21.19;54.88;101713.94;5031850;28;20603;-61
2021/08/27 00:57:56;;;;;;;2.38;0.70;;;;;;;21.18;54.58;101708.78;5031480;28;20105;-60
2021/08/27 01:00:21;;;;;;;3.80;0.80;;;;;;;21.16;54.66;101705.41;5031241;28;20121;-62
2021/08/27 01:02:47;;;;;;;2.83;0.80;;;;;;;21.18;54.53;101711.44;5031388;28;20037;-61
2021/08/27 01:05:13;;;;;;;2.47;0.80;;;;;;;21.18;54.79;101711.44;5032169;28;20030;-62
2021/08/27 01:07:49;;;;;;;2.88;0.80;;;;;;;21.17;54.65;101705.28;5031404;28;20033;-61
2021/08/27 01:10:32;;;;;;;3.33;0.82;;;;;;;21.17;54.67;101704.44;5031794;28;20342;-61
2021/08/27 01:13:12;;;;;;;3.60;0.80;;;;;;;21.16;54.66;101708.06;5030868;28;20060;-63
2021/08/27 01:16:06;;;;;;;2.42;0.88;;;;;;;21.16;54.63;101703.59;5032084;28;20037;-61
2021/08/27 01:18:43;;;;;;;3.65;0.85;;;;;;;21.15;54.69;101704.56;5029756;28;20041;-60
2021/08/27 01:21:37;;;;;;;1.98;0.65;;;;;;;21.14;54.53;101702.88;5031175;28;20033;-62
2021/08/27 01:24:05;;;;;;;3.33;0.80;;;;;;;21.15;54.53;101711.66;5031481;28;20232;-62
2021/08/27 01:26:36;;;;;;;2.30;0.68;;;;;;;21.14;54.65;101707.31;5030834;28;20037;-61
2021/08/27 01:29:04;;;;;;;1.85;0.70;;;;;;;21.13;54.48;101709.16;5031489;28;20068;-60
2021/08/27 01:31:38;;;;;;;2.53;0.90;;;;;;;21.12;54.49;101707.44;5031541;28;20381;-61
2021/08/27 01:34:15;;;;;;;1.70;0.70;;;;;;;21.13;54.19;101710.97;5031435;28;20758;-59
2021/08/27 01:36:42;;;;;;;2.65;0.80;;;;;;;21.12;54.40;101704.78;5035708;28;20030;-62
2021/08/27 01:39:11;;;;;;;3.33;0.82;;;;;;;21.11;54.34;101705.78;5035187;28;20026;-61
2021/08/27 01:41:40;;;;;;;2.80;0.90;;;;;;;21.11;54.49;101708.44;5034669;28;20109;-61
2021/08/27 01:44:10;;;;;;;2.70;0.70;;;;;;;21.11;54.27;101708.44;5034946;28;20032;-61
2021/08/27 01:46:41;;;;;;;2.58;0.70;;;;;;;21.11;54.43;101711.09;5035170;28;20104;-61
2021/08/27 01:49:08;;;;;;;3.20;0.75;;;;;;;21.09;54.36;101702.41;5034234;28;20030;-61
2021/08/27 01:51:36;;;;;;;4.53;1.38;;;;;;;21.10;54.15;101708.56;5035124;28;20386;-62
2021/08/27 01:54:03;;;;;;;1.73;0.50;;;;;;;21.10;54.22;101711.22;5034910;28;20029;-62
2021/08/27 01:56:30;;;;;;;2.35;0.68;;;;;;;21.10;54.17;101711.22;5034364;28;20419;-60
2021/08/27 01:58:58;;;;;;;2.03;0.80;;;;;;;21.07;54.39;101706.97;5034716;28;20471;-61
2021/08/27 02:01:25;;;;;;;1.83;0.60;;;;;;;21.08;54.19;101707.81;5035087;28;20025;-60
2021/08/27 02:03:53;;;;;;;4.20;0.70;;;;;;;21.09;54.31;101714.81;5033827;28;20033;-61
2021/08/27 02:06:19;;;;;;;2.67;0.70;;;;;;;21.06;54.22;101717.72;5034905;28;20029;-61
2021/08/27 02:08:50;;;;;;;4.05;0.90;;;;;;;21.07;54.23;101714.94;5033854;28;20140;-61
2021/08/27 02:11:15;;;;;;;2.67;0.80;;;;;;;21.06;54.03;101715.06;5034849;28;20030;-61
2021/08/27 02:13:43;;;;;;;4.18;0.90;;;;;;;21.07;54.20;101722.06;5034814;28;20087;-61
2021/08/27 02:16:09;;;;;;;1.58;0.60;;;;;;;21.06;54.05;101717.72;5034153;28;20032;-61
2021/08/27 02:18:36;;;;;;;1.80;0.63;;;;;;;21.05;54.09;101724.81;5035037;28;20425;-61
2021/08/27 02:21:04;;;;;;;2.72;0.73;;;;;;;21.04;54.18;101717.00;5034503;28;20027;-62
2021/08/27 02:23:32;;;;;;;2.17;0.68;;;;;;;21.04;54.00;101731.06;5034046;28;20067;-61
2021/08/27 02:26:02;;;;;;;2.08;0.80;;;;;;;21.03;54.08;101721.47;5034354;28;20079;-61
2021/08/27 02:28:29;;;;;;;2.85;0.70;;;;;;;21.02;53.97;101725.91;5034624;28;20087;-61
2021/08/27 02:30:56;;;;;;;3.22;1.00;;;;;;;21.02;53.87;101730.38;5033701;28;20030;-61
2021/08/27 02:33:25;;;;;;;2.35;0.80;;;;;;;21.02;53.88;101728.56;5034605;28;20022;-61
2021/08/27 02:35:54;;;;;;;3.00;0.93;;;;;;;21.02;53.95;101735.66;5034308;28;20033;-61
2021/08/27 02:38:23;;;;;;;2.22;0.80;;;;;;;21.01;53.95;101734.84;5033753;28;20021;-61
2021/08/27 02:40:49;;;;;;;3.08;0.60;;;;;;;21.00;53.97;101730.50;5033961;28;20036;-61
2021/08/27 02:43:14;;;;;;;2.53;0.75;;;;;;;20.97;53.86;101729.91;5034466;28;20029;-61
2021/08/27 02:45:40;;;;;;;1.73;0.70;;;;;;;20.95;53.97;101727.38;5032833;28;20469;-61
2021/08/27 02:48:06;;;;;;;2.28;0.73;;;;;;;20.96;53.84;101728.22;5033902;28;20033;-61
2021/08/27 02:50:40;;;;;;;2.15;0.80;;;;;;;20.97;53.86;101729.91;5034315;28;20489;-61
2021/08/27 02:53:11;;;;;;;2.53;0.80;;;;;;;20.96;54.03;101726.38;5033224;28;20049;-60
2021/08/27 02:55:43;;;;;;;2.17;0.63;;;;;;;20.97;53.77;101733.38;5034260;28;20116;-61
2021/08/27 02:58:17;;;;;;;2.97;0.95;;;;;;;20.97;53.78;101730.72;5033516;28;20029;-61
2021/08/27 03:00:52;;;;;;;2.53;0.90;;;;;;;20.97;53.92;101721.94;5034090;28;20026;-61
2021/08/27 03:03:23;;;;;;;3.00;0.70;;;;;;;20.98;53.97;101736.88;5033995;28;20109;-60
2021/08/27 03:05:51;;;;;;;2.42;0.70;;;;;;;20.97;53.90;101727.25;5032891;28;20029;-61
2021/08/27 03:08:25;;;;;;;2.83;0.70;;;;;;;20.96;53.64;101725.56;5033832;28;20520;-62
2021/08/27 03:11:02;;;;;;;1.95;0.63;;;;;;;20.96;53.72;101717.59;5033561;28;20029;-62
2021/08/27 03:13:34;;;;;;;1.88;0.70;;;;;;;20.96;53.86;101722.91;5033273;28;20045;-62
2021/08/27 03:16:06;;;;;;;3.08;0.80;;;;;;;20.96;53.58;101722.91;5033423;28;20080;-61
2021/08/27 03:18:45;;;;;;;2.15;0.70;;;;;;;20.95;53.64;101719.41;5033963;28;20025;-61
2021/08/27 03:21:21;;;;;;;2.42;0.63;;;;;;;20.95;53.86;101724.72;5033098;28;20040;-61
2021/08/27 03:23:49;;;;;;;2.17;0.88;;;;;;;20.94;53.79;101717.72;5033414;28;20178;-62
2021/08/27 03:26:21;;;;;;;3.58;0.90;;;;;;;20.94;53.80;101723.03;5033468;28;20029;-61
2021/08/27 03:28:52;;;;;;;3.47;0.73;;;;;;;20.94;53.75;101727.50;5035775;28;20022;-60
2021/08/27 03:31:17;;;;;;;2.92;0.70;;;;;;;20.91;53.68;101725.91;5035497;28;20049;-61
2021/08/27 03:33:44;;;;;;;1.63;0.55;;;;;;;20.92;53.62;101724.97;5034918;28;20496;-61
2021/08/27 03:36:10;;;;;;;2.95;1.17;;;;;;;20.93;53.75;101721.31;5035555;28;20029;-61
2021/08/27 03:38:36;;;;;;;2.03;0.80;;;;;;;20.92;53.89;101719.66;5036747;28;20025;-61
2021/08/27 03:41:02;;;;;;;2.58;0.57;;;;;;;20.91;53.71;101717.97;5035310;28;20018;-61
2021/08/27 03:43:27;;;;;;;2.70;0.77;;;;;;;20.91;53.85;101719.78;5034472;28;20029;-61
2021/08/27 03:45:53;;;;;;;2.75;0.65;;;;;;;20.90;53.75;101718.91;5032852;28;20033;-61
2021/08/27 03:48:20;;;;;;;1.48;0.77;;;;;;;20.90;53.78;101715.44;5032149;28;20045;-61
2021/08/27 03:50:51;;;;;;;2.55;0.70;;;;;;;20.91;53.70;101714.50;5032719;28;20109;-60
2021/08/27 03:53:17;;;;;;;1.77;0.70;;;;;;;20.91;53.76;101723.25;5035324;28;20029;-62
2021/08/27 03:55:46;;;;;;;1.60;0.50;;;;;;;20.83;53.59;101709.78;5032598;28;20045;-61
2021/08/27 03:58:12;;;;;;;2.25;0.75;;;;;;;20.90;53.81;101718.91;5033019;28;20026;-61
2021/08/27 04:00:38;;;;;;;1.95;0.63;;;;;;;20.83;53.80;101707.13;5032998;28;20098;-61
2021/08/27 04:03:04;;;;;;;2.95;0.80;;;;;;;20.90;53.94;101728.69;5031592;28;20031;-61
2021/08/27 04:05:29;;;;;;;1.40;0.50;;;;;;;20.87;53.79;101729.78;5032712;28;20043;-61
2021/08/27 04:07:55;;;;;;;1.83;0.63;;;;;;;20.89;53.79;101727.84;5032196;28;20029;-61
2021/08/27 04:10:23;;;;;;;2.55;0.70;;;;;;;20.89;53.86;101721.72;5031538;28;20021;-61
2021/08/27 04:12:48;;;;;;;3.55;0.80;;;;;;;20.88;53.82;101723.50;5032209;28;20025;-61
2021/08/27 04:15:15;;;;;;;2.47;0.70;;;;;;;20.89;53.83;101725.22;5032463;28;20025;-61
2021/08/27 04:17:42;;;;;;;2.72;0.80;;;;;;;20.87;53.83;101718.34;5032445;28;20500;-61
2021/08/27 04:20:11;;;;;;;2.90;0.80;;;;;;;20.87;53.67;101716.53;5032467;28;20096;-61
2021/08/27 04:22:37;;;;;;;3.30;0.80;;;;;;;20.87;53.76;101711.25;5031784;28;20144;-61
2021/08/27 04:25:03;;;;;;;2.80;0.68;;;;;;;20.87;53.89;101719.19;5032031;28;20538;-61
2021/08/27 04:27:28;;;;;;;2.75;0.88;;;;;;;20.87;53.51;101720.97;5031058;28;20060;-61
2021/08/27 04:29:54;;;;;;;2.70;0.90;;;;;;;20.86;53.90;101725.44;5031531;28;20107;-61
2021/08/27 04:32:23;;;;;;;1.25;0.52;;;;;;;20.86;53.83;101727.25;5032446;28;20394;-62
2021/08/27 04:34:48;;;;;;;3.20;0.88;;;;;;;20.77;53.91;101716.41;5031970;28;20026;-60
2021/08/27 04:37:14;;;;;;;2.70;0.70;;;;;;;20.85;53.92;101731.69;5031593;28;20462;-60
2021/08/27 04:39:39;;;;;;;2.85;0.70;;;;;;;20.87;53.90;101731.56;5032062;28;20045;-62
2021/08/27 04:42:05;;;;;;;2.42;0.80;;;;;;;20.85;53.74;101734.34;5031980;28;20096;-62
2021/08/27 04:44:30;;;;;;;2.42;0.70;;;;;;;20.85;53.84;101729.03;5031341;28;20057;-61
2021/08/27 04:46:59;;;;;;;2.88;0.60;;;;;;;20.86;53.92;101727.25;5031903;28;20021;-60
2021/08/27 04:49:24;;;;;;;3.33;0.80;;;;;;;20.84;53.87;101736.16;5032185;28;20028;-60
2021/08/27 04:51:52;;;;;;;4.28;1.02;;;;;;;20.84;53.83;101730.03;5030699;28;20506;-61
2021/08/27 04:54:18;;;;;;;3.42;0.93;;;;;;;20.83;53.83;101737.13;5032328;28;20251;-61
2021/08/27 04:56:46;;;;;;;2.60;0.80;;;;;;;20.83;53.83;101734.47;5032199;28;20189;-61
2021/08/27 04:59:11;;;;;;;2.38;0.60;;;;;;;20.82;53.92;101735.44;5031211;28;20496;-61
2021/08/27 05:01:39;;;;;;;2.13;0.50;;;;;;;20.83;53.99;101738.94;5032079;28;20029;-61
2021/08/27 05:04:04;;;;;;;2.35;0.70;;;;;;;20.79;53.91;101743.63;5031519;28;20048;-61
2021/08/27 05:06:29;;;;;;;2.63;0.57;;;;;;;20.83;53.67;101754.81;5031536;28;20022;-62
2021/08/27 05:08:55;;;;;;;1.95;0.70;;;;;;;20.83;53.85;101745.06;5033868;28;20278;-62
2021/08/27 05:11:20;;;;;;;3.97;1.10;;;;;;;20.82;54.01;101750.47;5038597;28;20104;-62
2021/08/27 05:13:45;;;;;;;3.03;0.70;;;;;;;20.83;53.88;101752.19;5037563;28;20030;-61
2021/08/27 05:16:11;;;;;;;2.50;0.70;;;;;;;20.82;53.87;101754.00;5039051;28;20746;-62
2021/08/27 05:18:36;;;;;;;3.20;0.70;;;;;;;20.82;53.90;101751.34;5038034;28;20638;-60
2021/08/27 05:21:01;;;;;;;2.57;0.70;;;;;;;20.81;54.34;101759.41;5037968;28;20030;-61
2021/08/27 05:23:26;;;;;;;3.60;0.77;;;;;;;20.81;54.01;101762.06;5038027;28;20290;-61
2021/08/27 05:25:53;;;;;;;2.60;0.73;;;;;;;20.82;53.73;101755.78;5037426;28;20029;-61
2021/08/27 05:28:18;;;;;;;3.60;0.85;;;;;;;20.80;53.92;101761.19;5038600;28;20021;-61
2021/08/27 05:30:46;;;;;;;3.42;0.80;;;;;;;20.82;54.06;101755.78;5038177;28;20017;-60
2021/08/27 05:33:12;;;;;;;3.42;1.20;;;;;;;20.81;54.05;101767.38;5037723;28;20022;-60
2021/08/27 05:35:40;;;;;;;3.85;0.75;;;;;;;20.80;54.15;101765.66;5038259;28;20017;-60
2021/08/27 05:38:05;;;;;;;2.88;0.60;;;;;;;20.80;53.99;101777.09;5037959;28;20029;-60
2021/08/27 05:40:34;;;;;;;2.55;0.80;;;;;;;20.79;54.13;101774.56;5037698;28;20048;-60
2021/08/27 05:42:59;;;;;;;2.80;0.65;;;;;;;20.80;54.11;101773.63;5037948;28;20445;-61
2021/08/27 05:45:24;;;;;;;3.30;0.80;;;;;;;20.79;54.16;101780.72;5038442;28;20068;-61
2021/08/27 05:47:49;;;;;;;2.77;0.80;;;;;;;20.80;54.05;101776.25;5037423;28;20262;-62
2021/08/27 05:50:16;;;;;;;2.67;0.77;;;;;;;20.81;54.05;101775.31;5038198;28;20266;-61
2021/08/27 05:52:42;;;;;;;1.55;0.60;;;;;;;20.80;54.17;101777.09;5038014;28;20056;-62
2021/08/27 05:55:08;;;;;;;2.28;0.70;;;;;;;20.80;54.05;101779.75;5037754;28;20025;-62
2021/08/27 05:57:34;;;;;;;2.95;0.88;;;;;;;20.79;54.19;101774.56;5038428;28;20343;-61
2021/08/27 06:00:00;;;;;;;3.38;1.10;;;;;;;20.80;54.09;101776.25;5038102;28;20103;-60
2021/08/27 06:02:26;;;;;;;1.85;0.60;;;;;;;20.80;54.16;101776.25;5037347;28;20046;-61
2021/08/27 06:04:51;;;;;;;2.03;0.68;;;;;;;20.79;54.18;101775.44;5038203;28;20057;-62
2021/08/27 06:07:17;;;;;;;2.63;0.80;;;;;;;20.77;54.17;101773.84;5038702;28;20025;-62
2021/08/27 06:09:42;;;;;;;3.75;0.68;;;;;;;20.78;54.26;101776.38;5037932;28;20032;-61
2021/08/27 06:12:11;;;;;;;2.03;0.73;;;;;;;20.80;54.21;101785.03;5038019;28;20025;-63
2021/08/27 06:14:36;;;;;;;1.30;0.60;;;;;;;20.80;54.11;101776.25;5038321;28;20112;-60
2021/08/27 06:17:02;;;;;;;2.47;0.70;;;;;;;20.80;54.32;101776.25;5037376;28;20113;-61
2021/08/27 06:19:30;;;;;;;2.95;0.70;;;;;;;20.79;54.30;101777.22;5038069;28;20424;-61
2021/08/27 06:21:57;;;;;;;2.15;0.65;;;;;;;20.78;54.46;101783.50;5033469;28;20075;-61
2021/08/27 06:24:23;;;;;;;3.95;0.70;;;;;;;20.78;54.32;101778.19;5034528;28;20037;-62
2021/08/27 06:26:48;;;;;;;4.03;1.17;;;;;;;20.77;54.39;101774.69;5034393;28;20032;-61
2021/08/27 06:29:13;;;;;;;2.83;0.73;;;;;;;20.76;54.58;101777.44;5034071;28;20136;-61
2021/08/27 06:31:39;;;;;;;2.72;0.70;;;;;;;20.78;54.61;101779.03;5035097;28;20747;-60
2021/08/27 06:34:04;;;;;;;3.70;0.90;;;;;;;20.82;54.61;101774.31;5035127;28;20056;-61
2021/08/27 06:36:30;;;;;;;4.10;0.90;;;;;;;20.81;54.61;101770.84;5034038;28;20032;-60
2021/08/27 06:38:55;;;;;;;2.65;0.77;;;;;;;20.84;54.73;101778.56;5034526;28;20036;-61
2021/08/27 06:41:20;;;;;;;3.47;0.90;;;;;;;20.86;54.82;101773.13;5034767;28;20094;-60
2021/08/27 06:43:46;;;;;;;3.03;0.88;;;;;;;20.87;54.93;101768.66;5033322;28;20033;-61
2021/08/27 06:46:14;;;;;;;4.70;1.00;;;;;;;20.90;55.52;101773.72;5034425;28;20029;-62
2021/08/27 06:48:40;;;;;;;2.50;0.90;;;;;;;20.91;55.45;101770.97;5034249;28;20025;-61
2021/08/27 06:51:05;;;;;;;4.20;0.85;;;;;;;20.93;55.53;101784.09;5033202;28;20033;-64
2021/08/27 06:53:31;;;;;;;3.55;0.80;;;;;;;20.95;55.71;101785.66;5034136;28;20041;-61
2021/08/27 06:55:57;;;;;;;2.88;0.90;;;;;;;20.96;55.46;101787.34;5034150;28;20033;-64
2021/08/27 06:58:22;;;;;;;2.83;0.75;;;;;;;20.98;55.62;101782.78;5033327;28;20021;-61
2021/08/27 07:00:48;;;;;;;3.20;0.77;;;;;;;21.01;55.65;101787.84;5033840;28;20030;-63
2021/08/27 07:03:13;;;;;;;3.97;0.82;;;;;;;21.01;55.77;101782.53;5034012;28;20036;-62
2021/08/27 07:05:41;;;;;;;3.20;0.90;;;;;;;21.04;55.69;101791.19;5033381;28;20385;-62
2021/08/27 07:08:10;;;;;;;2.85;1.00;;;;;;;21.06;55.64;101782.19;5033849;28;20659;-60
2021/08/27 07:10:36;;;;;;;5.65;1.00;;;;;;;21.08;55.40;101790.84;5033878;28;20026;-61
2021/08/27 07:13:03;;;;;;;4.05;0.70;;;;;;;21.10;55.98;101782.78;5032927;28;20048;-60
2021/08/27 07:15:28;;;;;;;3.38;0.90;;;;;;;21.11;55.65;101787.09;5033702;28;20065;-61
2021/08/27 07:17:54;;;;;;;2.63;0.90;;;;;;;21.13;55.90;101795.78;5033498;28;20099;-64
2021/08/27 07:20:21;;;;;;;3.17;0.80;;;;;;;21.15;55.90;101791.19;5033170;28;20021;-64
2021/08/27 07:22:46;;;;;;;4.28;0.88;;;;;;;21.16;55.97;101784.94;5033600;28;20029;-60
2021/08/27 07:25:12;;;;;;;2.95;0.98;;;;;;;21.16;56.16;101787.59;5033553;28;20024;-63
2021/08/27 07:27:39;;;;;;;3.67;0.90;;;;;;;21.17;56.24;101787.47;5034888;28;20064;-64
2021/08/27 07:30:12;;;;;;;3.33;0.90;;;;;;;21.18;56.36;101789.13;5033938;28;20029;-63
2021/08/27 07:32:37;;;;;;;3.85;1.00;;;;;;;21.20;56.15;101797.81;5032430;28;20037;-61
2021/08/27 07:35:07;;;;;;;3.55;1.10;;;;;;;21.22;56.00;101794.19;5033724;28;20344;-63
2021/08/27 07:37:32;;;;;;;5.22;0.80;;;;;;;21.22;56.13;101792.41;5033049;28;20037;-61
2021/08/27 07:39:58;;;;;;;3.42;0.85;;;;;;;21.20;56.14;101784.56;5032723;28;20072;-63
2021/08/27 07:42:24;;;;;;;3.95;0.98;;;;;;;21.24;56.17;101793.13;5033564;28;20017;-63
2021/08/27 07:44:49;;;;;;;3.85;0.88;;;;;;;21.24;56.04;101787.81;5033434;28;20028;-63
2021/08/27 07:47:15;;;;;;;4.40;1.00;;;;;;;21.26;56.31;101790.34;5032947;28;20021;-62
2021/08/27 07:49:40;;;;;;;4.25;1.15;;;;;;;21.27;56.24;101790.22;5033751;28;20541;-62
2021/08/27 07:52:06;;;;;;;2.97;0.80;;;;;;;21.28;56.18;101791.06;5033029;28;20073;-66
2021/08/27 07:54:31;;;;;;;2.65;1.05;;;;;;;21.29;56.14;101790.09;5032743;28;20381;-62
2021/08/27 07:56:57;;;;;;;3.72;0.65;;;;;;;21.32;56.39;101795.16;5033104;28;20116;-61
2021/08/27 07:59:23;;;;;;;2.75;0.75;;;;;;;21.29;56.46;101796.22;5033627;28;20390;-61
2021/08/27 08:02:00;;;;;;;4.40;0.70;;;;;;;21.34;56.27;101799.34;5032459;28;20491;-62
2021/08/27 08:04:26;;;;;;;4.40;0.93;;;;;;;21.35;56.40;101801.06;5033073;28;20029;-64
2021/08/27 08:06:51;;;;;;;3.92;1.00;;;;;;;21.37;56.16;101804.41;5033070;28;20032;-63
2021/08/27 08:09:19;;;;;;;2.97;0.88;;;;;;;21.37;56.20;101801.75;5033047;28;20028;-64
2021/08/27 08:11:45;;;;;;;3.70;0.90;;;;;;;21.36;56.20;101802.75;5035234;28;20025;-63
2021/08/27 08:14:10;;;;;;;2.72;0.70;;;;;;;21.35;56.34;101801.06;5033096;28;20028;-63
2021/08/27 08:16:35;;;;;;;3.33;1.27;;;;;;;21.39;56.14;101799.00;5032944;28;20026;-64
2021/08/27 08:19:03;;;;;;;5.10;0.80;;;;;;;21.38;56.13;101797.31;5033884;28;20024;-65
2021/08/27 08:21:29;;;;;;;5.38;0.90;;;;;;;21.39;56.21;101793.69;5032938;28;20034;-64
2021/08/27 08:23:55;;;;;;;3.42;0.63;;;;;;;21.40;56.05;101791.91;5034824;28;20025;-66
2021/08/27 08:26:39;;;;;;;2.72;0.80;;;;;;;21.40;55.90;101791.91;5035273;28;20053;-64
2021/08/27 08:29:05;;;;;;;4.03;0.68;;;;;;;21.42;56.08;101801.41;5034218;28;20030;-65
2021/08/27 08:31:31;;;;;;;2.25;0.80;;;;;;;21.42;55.92;101805.88;5033784;28;20100;-64
2021/08/27 08:33:57;;;;;;;2.88;0.80;;;;;;;21.39;56.38;101804.28;5032765;28;20049;-61
2021/08/27 08:36:22;;;;;;;4.22;0.70;;;;;;;21.36;56.02;101804.53;5032005;28;20385;-61
2021/08/27 08:38:49;;;;;;;4.97;1.00;;;;;;;21.36;56.21;101813.34;5032587;28;20030;-64
2021/08/27 08:41:15;;;;;;;1.98;0.73;;;;;;;21.37;56.18;101812.38;5032858;28;20358;-64
2021/08/27 08:43:42;;;;;;;4.47;0.75;;;;;;;21.36;55.86;101810.69;5031970;28;20029;-65
2021/08/27 08:46:08;;;;;;;4.90;0.90;;;;;;;21.37;56.00;101817.66;5032386;28;20029;-64
2021/08/27 08:48:34;;;;;;;2.10;0.68;;;;;;;21.38;55.99;101811.41;5032532;28;20021;-64
2021/08/27 08:51:02;;;;;;;2.60;0.85;;;;;;;21.36;55.94;101796.56;5031102;28;20448;-61
2021/08/27 08:53:30;;;;;;;2.75;0.73;;;;;;;21.37;56.08;101800.94;5032488;28;20113;-62
2021/08/27 08:55:55;;;;;;;2.00;0.60;;;;;;;21.36;56.09;101812.50;5032776;28;20041;-65
2021/08/27 08:58:21;;;;;;;2.75;0.88;;;;;;;21.35;55.88;101811.66;5032172;28;20414;-66
2021/08/27 09:00:47;;;;;;;3.88;0.80;;;;;;;21.37;56.16;101824.78;5032295;28;20022;-64
2021/08/27 09:03:13;;;;;;;3.13;0.80;;;;;;;21.37;56.12;101807.06;5032134;28;20539;-63
2021/08/27 09:05:40;;;;;;;3.03;0.90;;;;;;;21.39;56.18;101812.25;5031513;28;20025;-63
2021/08/27 09:08:05;;;;;;;2.08;0.80;;;;;;;21.38;56.02;101814.06;5031877;28;20034;-63
2021/08/27 09:10:39;;;;;;;4.28;0.85;;;;;;;21.40;56.00;101815.75;5032405;28;20412;-63
2021/08/27 09:13:07;;;;;;;5.10;0.80;;;;;;;21.41;56.18;101812.13;5031955;28;20112;-65
2021/08/27 09:15:32;;;;;;;1.55;0.65;;;;;;;21.38;55.93;101815.88;5032405;28;20038;-60
2021/08/27 09:18:04;;;;;;;2.90;0.93;;;;;;;21.35;56.16;101814.31;5031183;28;20046;-65
2021/08/27 09:20:30;;;;;;;3.60;0.80;;;;;;;21.35;56.00;101814.31;5032153;28;20140;-65
2021/08/27 09:23:00;;;;;;;1.98;0.68;;;;;;;21.35;55.77;101810.81;5031538;28;20061;-62
2021/08/27 09:25:28;;;;;;;1.27;0.65;;;;;;;21.33;56.05;101816.25;5031397;28;20026;-61
2021/08/27 09:28:18;;;;;;;2.05;0.77;;;;;;;21.32;55.98;101822.50;5031798;28;20032;-61
2021/08/27 09:30:46;;;;;;;3.42;0.60;;;;;;;21.32;56.02;101817.19;5031938;28;20053;-63
2021/08/27 09:33:18;;;;;;;2.25;0.80;;;;;;;21.30;55.67;101816.50;5031380;28;20099;-63
2021/08/27 09:36:30;;;;;;;3.13;0.80;;;;;;;21.33;55.63;101813.59;5032372;28;20025;-62
2021/08/27 09:39:11;;;;;;;2.97;0.90;;;;;;;21.34;55.61;101823.22;4970029;28;20462;-62
2021/08/27 09:41:55;;;;;;;2.63;0.80;;;;;;;21.32;55.72;101822.50;5030367;28;20038;-63
2021/08/27 09:44:22;;;;;;;2.47;0.63;;;;;;;21.36;55.68;101829.25;5032352;28;20034;-62
2021/08/27 09:46:48;;;;;;;3.70;0.70;;;;;;;21.37;55.45;101819.50;5032160;28;20485;-64
2021/08/27 09:49:30;;;;;;;2.50;0.65;;;;;;;21.36;55.65;101833.69;5031670;28;20060;-61
2021/08/27 09:51:59;;;;;;;4.45;1.00;;;;;;;21.36;55.55;101818.66;5031512;28;20045;-62
2021/08/27 09:54:36;;;;;;;3.40;0.80;;;;;;;21.37;55.40;101822.97;5031259;28;20103;-63
2021/08/27 09:57:04;;;;;;;2.00;0.70;;;;;;;21.35;55.41;101814.31;5035217;28;20084;-63
2021/08/27 09:59:50;;;;;;;2.85;0.80;;;;;;;21.36;55.19;101828.41;5036069;28;20033;-63
2021/08/27 10:02:31;;;;;;;1.92;0.60;;;;;;;21.37;55.31;101846.00;5035146;28;20068;-62
2021/08/27 10:05:05;;;;;;;2.65;0.70;;;;;;;21.35;55.06;101855.91;5035489;28;20044;-60
2021/08/27 10:07:32;;;;;;;;;;;;;;;21.35;55.05;101853.25;5035524;28;20036;-65
2021/08/27 10:10:00;;;;;;;3.38;0.90;;;;;;;21.33;55.13;101840.09;5035411;28;19946;-63
2021/08/27 10:12:31;;;;;;;2.83;0.75;;;;;;;21.34;55.20;101838.28;5035466;28;20037;-61
2021/08/27 10:14:58;;;;;;;3.22;0.70;;;;;;;21.34;55.23;101835.63;5034448;28;20033;-61
2021/08/27 10:17:27;;;;;;;2.25;0.70;;;;;;;21.34;55.22;101825.03;5035672;28;20104;-61
2021/08/27 10:19:53;;;;;;;2.90;0.80;;;;;;;21.35;55.26;101818.78;5035156;28;20496;-60
2021/08/27 10:22:19;;;;;;;3.13;0.57;;;;;;;21.36;55.25;101817.78;5034106;28;20018;-62
2021/08/27 10:24:47;;;;;;;4.00;0.80;;;;;;;21.32;54.83;101803.94;5034652;28;20033;-61
2021/08/27 10:27:15;;;;;;;2.47;0.90;;;;;;;21.36;55.04;101805.41;5033516;28;20028;-63
2021/08/27 10:30:07;;;;;;;1.88;0.60;;;;;;;21.36;55.19;101804.53;5033943;28;20041;-62
2021/08/27 10:32:38;;;;;;;2.78;0.70;;;;;;;21.38;55.24;101798.16;5031855;28;20033;-62
2021/08/27 10:35:08;;;;;;;3.78;0.80;;;;;;;21.37;55.06;101793.81;5033828;28;20033;-62
2021/08/27 10:37:49;;;;;;;2.92;0.77;;;;;;;21.35;54.86;101786.97;5034636;28;20095;-62
2021/08/27 10:40:24;;;;;;;4.20;1.00;;;;;;;21.37;54.71;101792.97;5034642;28;20091;-62
2021/08/27 10:42:57;;;;;;;3.00;1.05;;;;;;;21.35;54.92;101785.13;5034018;28;20040;-61
2021/08/27 10:45:40;;;;;;;2.15;0.68;;;;;;;21.38;54.73;101774.28;5034721;28;20473;-63
2021/08/27 10:48:16;;;;;;;2.70;0.80;;;;;;;21.39;54.72;101783.06;5035550;28;20064;-63
2021/08/27 10:50:45;;;;;;;3.65;0.77;;;;;;;21.40;54.67;101784.78;5033961;28;20111;-62
2021/08/27 10:53:16;;;;;;;2.63;1.10;;;;;;;21.41;54.77;101786.44;5035258;28;20028;-62
2021/08/27 10:55:42;;;;;;;3.25;0.80;;;;;;;21.40;54.81;101774.16;5034819;28;20021;-62
2021/08/27 10:58:11;;;;;;;2.65;0.70;;;;;;;21.44;54.72;101782.72;5033507;28;20206;-61
2021/08/27 11:00:39;;;;;;;2.42;0.68;;;;;;;21.46;54.55;101778.13;5035031;28;20033;-63
2021/08/27 11:03:06;;;;;;;4.00;0.90;;;;;;;21.45;54.48;101776.44;5036160;28;20033;-64
2021/08/27 11:05:38;;;;;;;3.30;0.85;;;;;;;21.46;54.43;101783.41;5033812;28;20496;-62
2021/08/27 11:08:06;;;;;;;3.10;0.82;;;;;;;21.45;54.67;101779.09;5033119;28;20505;-61
2021/08/27 11:10:34;;;;;;;3.13;0.80;;;;;;;21.45;54.42;101773.78;5033218;28;20505;-61
2021/08/27 11:13:00;;;;;;;2.47;0.63;;;;;;;21.44;54.46;101778.25;5033906;28;20496;-59
2021/08/27 11:15:30;;;;;;;3.53;0.85;;;;;;;21.43;54.28;101775.72;5033835;28;20044;-63
2021/08/27 11:18:17;;;;;;;1.90;0.60;;;;;;;21.44;54.49;101766.81;5033611;28;20041;-64
2021/08/27 11:20:43;;;;;;;2.15;0.73;;;;;;;21.45;54.67;101768.50;5034251;28;20037;-63
2021/08/27 11:23:09;;;;;;;5.07;0.90;;;;;;;21.47;54.43;101762.09;5034110;28;20033;-63
2021/08/27 11:25:42;;;;;;;2.20;0.70;;;;;;;21.48;54.75;101762.94;5033329;28;20026;-62
2021/08/27 11:28:18;;;;;;;3.03;0.88;;;;;;;21.49;54.52;101764.63;5034037;28;20037;-61
2021/08/27 11:31:01;;;;;;;3.03;0.93;;;;;;;21.52;54.21;101756.44;5033727;28;20032;-60